createdAt,value
2022-12-25T00:00:02.241Z,88.48
2022-12-25T00:00:18.383Z,88.49
2022-12-25T00:00:23.273Z,88.83
2022-12-25T00:00:32.233Z,88.64
2022-12-25T00:00:42.228Z,88.53
2022-12-25T00:00:53.733Z,88.56
2022-12-25T00:01:03.668Z,88.63
2022-12-25T00:01:12.170Z,88.58
2022-12-25T00:01:23.074Z,88.48
2022-12-25T00:01:32.253Z,88.55
2022-12-25T00:01:42.197Z,88.51
2022-12-25T00:01:52.246Z,88.52
2022-12-25T00:02:02.208Z,88.54
2022-12-25T00:02:12.304Z,88.53
2022-12-25T00:02:22.179Z,88.60
2022-12-25T00:02:32.479Z,88.69
2022-12-25T00:02:42.385Z,88.75
2022-12-25T00:02:52.319Z,88.74
2022-12-25T00:03:02.350Z,88.82
2022-12-25T00:03:12.391Z,88.85
2022-12-25T00:03:22.399Z,88.90
2022-12-25T00:03:32.486Z,88.92
2022-12-25T00:03:42.555Z,88.98
2022-12-25T00:03:52.359Z,89.03
2022-12-25T00:04:02.212Z,89.03
2022-12-25T00:04:12.461Z,89.10
2022-12-25T00:04:22.162Z,89.06
2022-12-25T00:04:32.404Z,89.04
2022-12-25T00:04:42.453Z,89.07
2022-12-25T00:04:53.595Z,89.11
2022-12-25T00:05:02.233Z,89.11
2022-12-25T00:05:12.234Z,89.03
2022-12-25T00:05:22.214Z,89.00
2022-12-25T00:05:32.213Z,88.99
2022-12-25T00:05:42.455Z,89.04
2022-12-25T00:05:52.190Z,89.04
2022-12-25T00:06:02.193Z,89.09
2022-12-25T00:06:12.452Z,89.20
2022-12-25T00:06:22.138Z,89.34
2022-12-25T00:06:32.407Z,89.47
2022-12-25T00:06:42.446Z,89.69
2022-12-25T00:06:52.204Z,89.85
2022-12-25T00:07:02.417Z,89.87
2022-12-25T00:07:12.135Z,89.96
2022-12-25T00:07:22.486Z,90.07
2022-12-25T00:07:32.148Z,90.11
2022-12-25T00:07:42.231Z,90.16
2022-12-25T00:07:52.139Z,90.20
2022-12-25T00:08:02.246Z,90.20
2022-12-25T00:08:12.455Z,90.15
2022-12-25T00:08:22.194Z,90.17
2022-12-25T00:08:32.126Z,90.11
2022-12-25T00:08:43.596Z,90.05
2022-12-25T00:08:52.139Z,90.12
2022-12-25T00:09:02.173Z,89.92
2022-12-25T00:09:12.131Z,89.92
2022-12-25T00:09:23.634Z,89.83
2022-12-25T00:09:32.155Z,89.83
2022-12-25T00:09:42.155Z,89.69
2022-12-25T00:09:52.168Z,89.67
2022-12-25T00:10:02.196Z,89.57
2022-12-25T00:10:12.164Z,89.50
2022-12-25T00:10:22.136Z,89.51
2022-12-25T00:10:32.123Z,89.42
2022-12-25T00:10:45.352Z,89.32
2022-12-25T00:10:53.613Z,89.55
2022-12-25T00:11:02.147Z,89.32
2022-12-25T00:11:12.202Z,89.16
2022-12-25T00:11:23.568Z,89.12
2022-12-25T00:11:33.113Z,89.17
2022-12-25T00:11:42.143Z,89.05
2022-12-25T00:11:52.134Z,88.93
2022-12-25T00:12:02.156Z,88.84
2022-12-25T00:12:12.135Z,88.74
2022-12-25T00:12:23.076Z,88.74
2022-12-25T00:12:32.121Z,88.78
2022-12-25T00:12:42.278Z,88.68
2022-12-25T00:12:52.319Z,88.63
2022-12-25T00:13:02.155Z,88.57
2022-12-25T00:13:12.277Z,88.52
2022-12-25T00:13:22.129Z,88.54
2022-12-25T00:13:32.923Z,88.51
2022-12-25T00:13:42.114Z,88.51
2022-12-25T00:13:52.085Z,88.49
2022-12-25T00:14:02.139Z,88.45
2022-12-25T00:14:12.385Z,88.44
2022-12-25T00:14:22.108Z,88.46
2022-12-25T00:14:32.149Z,88.45
2022-12-25T00:14:42.104Z,88.47
2022-12-25T00:14:52.142Z,88.46
2022-12-25T00:15:02.145Z,88.42
2022-12-25T00:15:13.014Z,88.37
2022-12-25T00:15:22.425Z,88.43
2022-12-25T00:15:32.078Z,88.40
2022-12-25T00:15:42.313Z,88.37
2022-12-25T00:15:52.132Z,88.35
2022-12-25T00:16:02.325Z,88.36
2022-12-25T00:16:12.133Z,88.40
2022-12-25T00:16:22.148Z,88.37
2022-12-25T00:16:32.159Z,88.37
2022-12-25T00:16:42.145Z,88.33
2022-12-25T00:16:52.102Z,88.29
2022-12-25T00:17:02.125Z,88.26
2022-12-25T00:17:12.058Z,88.33
2022-12-25T00:17:22.558Z,88.28
2022-12-25T00:17:32.070Z,88.28
2022-12-25T00:17:43.044Z,88.27
2022-12-25T00:17:53.535Z,88.33
2022-12-25T00:18:02.107Z,88.37
2022-12-25T00:18:12.057Z,88.28
2022-12-25T00:18:22.046Z,88.32
2022-12-25T00:18:32.054Z,88.36
2022-12-25T00:18:42.078Z,88.34
2022-12-25T00:18:52.116Z,88.33
2022-12-25T00:19:02.074Z,88.33
2022-12-25T00:19:13.505Z,88.30
2022-12-25T00:19:22.091Z,88.39
2022-12-25T00:19:32.075Z,88.25
2022-12-25T00:19:42.139Z,88.36
2022-12-25T00:19:53.501Z,88.38
2022-12-25T00:20:02.065Z,88.46
2022-12-25T00:20:13.048Z,88.32
2022-12-25T00:20:22.146Z,88.39
2022-12-25T00:20:33.512Z,88.37
2022-12-25T00:20:42.056Z,88.47
2022-12-25T00:20:53.547Z,88.40
2022-12-25T00:21:02.078Z,88.51
2022-12-25T00:21:12.050Z,88.33
2022-12-25T00:21:22.039Z,88.30
2022-12-25T00:21:32.086Z,88.27
2022-12-25T00:21:42.236Z,88.29
2022-12-25T00:21:52.097Z,88.29
2022-12-25T00:22:02.044Z,88.35
2022-12-25T00:22:12.038Z,88.31
2022-12-25T00:22:22.279Z,88.30
2022-12-25T00:22:32.015Z,88.35
2022-12-25T00:22:42.345Z,88.37
2022-12-25T00:22:52.051Z,88.38
2022-12-25T00:23:02.320Z,88.46
2022-12-25T00:23:13.513Z,88.47
2022-12-25T00:23:22.104Z,88.45
2022-12-25T00:23:32.012Z,88.41
2022-12-25T00:23:42.005Z,88.40
2022-12-25T00:23:52.037Z,88.42
2022-12-25T00:24:02.077Z,88.43
2022-12-25T00:24:12.348Z,88.47
2022-12-25T00:24:22.000Z,88.42
2022-12-25T00:24:31.997Z,88.41
2022-12-25T00:24:42.006Z,88.45
2022-12-25T00:24:52.041Z,88.46
2022-12-25T00:25:02.453Z,88.47
2022-12-25T00:25:12.009Z,88.44
2022-12-25T00:25:22.410Z,88.43
2022-12-25T00:25:31.997Z,88.45
2022-12-25T00:25:42.000Z,88.39
2022-12-25T00:25:52.083Z,88.44
2022-12-25T00:26:02.031Z,88.45
2022-12-25T00:26:12.009Z,88.46
2022-12-25T00:26:22.507Z,88.48
2022-12-25T00:26:31.997Z,88.45
2022-12-25T00:26:41.976Z,88.47
2022-12-25T00:26:51.989Z,88.48
2022-12-25T00:27:02.540Z,88.51
2022-12-25T00:27:11.987Z,88.55
2022-12-25T00:27:22.209Z,88.54
2022-12-25T00:27:31.990Z,88.54
2022-12-25T00:27:41.977Z,88.49
2022-12-25T00:27:51.997Z,88.55
2022-12-25T00:28:01.997Z,88.53
2022-12-25T00:28:12.007Z,88.51
2022-12-25T00:28:22.637Z,88.51
2022-12-25T00:28:31.967Z,88.58
2022-12-25T00:28:41.983Z,88.54
2022-12-25T00:28:52.036Z,88.58
2022-12-25T00:29:02.348Z,88.52
2022-12-25T00:29:11.984Z,88.53
2022-12-25T00:29:21.968Z,88.51
2022-12-25T00:29:31.992Z,88.51
2022-12-25T00:29:41.983Z,88.54
2022-12-25T00:29:52.175Z,88.57
2022-12-25T00:30:02.456Z,88.56
2022-12-25T00:30:11.986Z,88.58
2022-12-25T00:30:21.960Z,88.47
2022-12-25T00:30:32.471Z,88.46
2022-12-25T00:30:41.958Z,88.57
2022-12-25T00:30:53.427Z,88.44
2022-12-25T00:31:02.019Z,88.50
2022-12-25T00:31:12.036Z,88.43
2022-12-25T00:31:22.011Z,88.46
2022-12-25T00:31:31.989Z,88.45
2022-12-25T00:31:42.439Z,88.40
2022-12-25T00:31:52.006Z,88.36
2022-12-25T00:32:02.060Z,88.35
2022-12-25T00:32:11.952Z,88.35
2022-12-25T00:32:21.951Z,88.32
2022-12-25T00:32:31.966Z,88.31
2022-12-25T00:32:41.947Z,88.35
2022-12-25T00:32:51.960Z,88.31
2022-12-25T00:33:02.003Z,88.34
2022-12-25T00:33:11.968Z,88.39
2022-12-25T00:33:21.950Z,88.39
2022-12-25T00:33:31.978Z,88.38
2022-12-25T00:33:41.929Z,88.39
2022-12-25T00:33:52.813Z,88.36
2022-12-25T00:34:01.954Z,88.46
2022-12-25T00:34:11.928Z,88.36
2022-12-25T00:34:21.984Z,88.34
2022-12-25T00:34:31.955Z,88.35
2022-12-25T00:34:41.939Z,88.39
2022-12-25T00:34:51.960Z,88.35
2022-12-25T00:35:01.945Z,88.35
2022-12-25T00:35:11.958Z,88.31
2022-12-25T00:35:21.927Z,88.29
2022-12-25T00:35:31.958Z,88.35
2022-12-25T00:35:41.930Z,88.39
2022-12-25T00:35:51.930Z,88.33
2022-12-25T00:36:01.934Z,88.33
2022-12-25T00:36:11.953Z,88.38
2022-12-25T00:36:21.932Z,88.32
2022-12-25T00:36:36.219Z,88.32
2022-12-25T00:36:42.440Z,88.60
2022-12-25T00:36:51.947Z,88.46
2022-12-25T00:37:01.922Z,88.36
2022-12-25T00:37:11.937Z,88.36
2022-12-25T00:37:21.941Z,88.39
2022-12-25T00:37:31.921Z,88.31
2022-12-25T00:37:41.909Z,88.31
2022-12-25T00:37:52.076Z,88.31
2022-12-25T00:38:01.939Z,88.24
2022-12-25T00:38:12.066Z,88.28
2022-12-25T00:38:21.930Z,88.30
2022-12-25T00:38:32.018Z,88.30
2022-12-25T00:38:41.900Z,88.32
2022-12-25T00:38:52.122Z,88.27
2022-12-25T00:39:01.974Z,88.28
2022-12-25T00:39:11.931Z,88.31
2022-12-25T00:39:22.021Z,88.32
2022-12-25T00:39:32.906Z,88.33
2022-12-25T00:39:42.139Z,88.35
2022-12-25T00:39:52.008Z,88.30
2022-12-25T00:40:02.009Z,88.42
2022-12-25T00:40:11.939Z,88.54
2022-12-25T00:40:22.187Z,88.63
2022-12-25T00:40:31.902Z,88.68
2022-12-25T00:40:42.157Z,88.66
2022-12-25T00:40:51.910Z,88.71
2022-12-25T00:41:01.940Z,88.74
2022-12-25T00:41:11.970Z,88.81
2022-12-25T00:41:21.901Z,88.87
2022-12-25T00:41:31.933Z,88.82
2022-12-25T00:41:41.909Z,88.85
2022-12-25T00:41:53.336Z,88.86
2022-12-25T00:42:01.992Z,88.97
2022-12-25T00:42:11.933Z,88.85
2022-12-25T00:42:21.939Z,88.79
2022-12-25T00:42:33.377Z,88.80
2022-12-25T00:42:41.941Z,88.86
2022-12-25T00:42:51.924Z,88.76
2022-12-25T00:43:01.918Z,88.81
2022-12-25T00:43:11.914Z,88.77
2022-12-25T00:43:21.926Z,88.79
2022-12-25T00:43:31.926Z,88.83
2022-12-25T00:43:41.990Z,88.87
2022-12-25T00:43:52.209Z,88.96
2022-12-25T00:44:01.908Z,89.01
2022-12-25T00:44:11.890Z,89.12
2022-12-25T00:44:23.338Z,89.20
2022-12-25T00:44:32.860Z,89.31
2022-12-25T00:44:43.339Z,89.32
2022-12-25T00:44:51.930Z,89.42
2022-12-25T00:45:01.915Z,89.42
2022-12-25T00:45:11.892Z,89.61
2022-12-25T00:45:21.914Z,89.70
2022-12-25T00:45:31.912Z,89.77
2022-12-25T00:45:41.926Z,89.86
2022-12-25T00:45:51.929Z,89.99
2022-12-25T00:46:02.244Z,90.02
2022-12-25T00:46:11.994Z,90.09
2022-12-25T00:46:22.052Z,90.14
2022-12-25T00:46:32.086Z,90.17
2022-12-25T00:46:41.930Z,90.15
2022-12-25T00:46:52.328Z,90.21
2022-12-25T00:47:01.921Z,90.27
2022-12-25T00:47:12.273Z,90.33
2022-12-25T00:47:23.318Z,90.29
2022-12-25T00:47:31.890Z,90.40
2022-12-25T00:47:41.901Z,90.35
2022-12-25T00:47:51.894Z,90.58
2022-12-25T00:48:02.029Z,90.67
2022-12-25T00:48:11.935Z,90.81
2022-12-25T00:48:21.949Z,90.91
2022-12-25T00:48:33.312Z,91.01
2022-12-25T00:48:41.853Z,91.14
2022-12-25T00:48:51.879Z,91.03
2022-12-25T00:49:01.856Z,91.15
2022-12-25T00:49:11.926Z,91.26
2022-12-25T00:49:22.034Z,91.35
2022-12-25T00:49:32.109Z,91.45
2022-12-25T00:49:42.781Z,91.46
2022-12-25T00:49:51.886Z,91.57
2022-12-25T00:50:01.886Z,91.55
2022-12-25T00:50:12.471Z,91.56
2022-12-25T00:50:21.901Z,91.63
2022-12-25T00:50:31.904Z,91.62
2022-12-25T00:50:41.836Z,91.63
2022-12-25T00:50:53.315Z,91.70
2022-12-25T00:51:03.319Z,91.74
2022-12-25T00:51:12.322Z,91.70
2022-12-25T00:51:22.471Z,91.64
2022-12-25T00:51:31.865Z,91.64
2022-12-25T00:51:42.442Z,91.58
2022-12-25T00:51:51.844Z,91.64
2022-12-25T00:52:01.882Z,91.58
2022-12-25T00:52:11.848Z,91.60
2022-12-25T00:52:22.529Z,91.50
2022-12-25T00:52:31.833Z,91.58
2022-12-25T00:52:43.310Z,91.54
2022-12-25T00:52:51.848Z,91.57
2022-12-25T00:53:01.849Z,91.41
2022-12-25T00:53:13.281Z,91.51
2022-12-25T00:53:22.791Z,91.53
2022-12-25T00:53:31.910Z,91.44
2022-12-25T00:53:41.821Z,91.38
2022-12-25T00:53:51.869Z,91.36
2022-12-25T00:54:01.871Z,91.25
2022-12-25T00:54:12.238Z,91.23
2022-12-25T00:54:21.848Z,91.17
2022-12-25T00:54:32.340Z,91.00
2022-12-25T00:54:41.798Z,91.01
2022-12-25T00:54:53.292Z,90.85
2022-12-25T00:55:01.823Z,90.85
2022-12-25T00:55:11.880Z,90.69
2022-12-25T00:55:21.835Z,90.68
2022-12-25T00:55:31.842Z,90.67
2022-12-25T00:55:41.832Z,90.67
2022-12-25T00:55:51.823Z,90.68
2022-12-25T00:56:01.823Z,90.67
2022-12-25T00:56:12.154Z,90.62
2022-12-25T00:56:21.884Z,90.47
2022-12-25T00:56:31.809Z,90.38
2022-12-25T00:56:41.885Z,90.28
2022-12-25T00:56:51.820Z,90.21
2022-12-25T00:57:01.856Z,90.06
2022-12-25T00:57:11.820Z,90.08
2022-12-25T00:57:21.849Z,90.06
2022-12-25T00:57:31.896Z,89.94
2022-12-25T00:57:43.289Z,89.86
2022-12-25T00:57:51.831Z,89.85
2022-12-25T00:58:02.137Z,89.76
2022-12-25T00:58:11.957Z,89.74
2022-12-25T00:58:21.783Z,89.62
2022-12-25T00:58:31.833Z,89.59
2022-12-25T00:58:43.235Z,89.53
2022-12-25T00:58:51.872Z,89.49
2022-12-25T00:59:01.931Z,89.33
2022-12-25T00:59:12.139Z,89.34
2022-12-25T00:59:21.792Z,89.34
2022-12-25T00:59:31.777Z,89.19
2022-12-25T00:59:41.834Z,89.16
2022-12-25T00:59:51.792Z,89.18
2022-12-25T01:00:01.821Z,89.17
2022-12-25T01:00:13.234Z,89.17
2022-12-25T01:00:21.827Z,89.21
2022-12-25T01:00:31.919Z,89.11
2022-12-25T01:00:43.259Z,89.14
2022-12-25T01:00:51.875Z,89.16
2022-12-25T01:01:01.808Z,89.10
2022-12-25T01:01:11.929Z,89.05
2022-12-25T01:01:22.043Z,89.09
2022-12-25T01:01:32.252Z,89.04
2022-12-25T01:01:41.912Z,89.01
2022-12-25T01:01:51.970Z,88.95
2022-12-25T01:02:01.923Z,88.90
2022-12-25T01:02:11.867Z,88.87
2022-12-25T01:02:22.060Z,88.90
2022-12-25T01:02:32.192Z,88.88
2022-12-25T01:02:41.863Z,88.77
2022-12-25T01:02:52.417Z,88.77
2022-12-25T01:03:01.953Z,88.75
2022-12-25T01:03:11.870Z,88.76
2022-12-25T01:03:21.868Z,88.68
2022-12-25T01:03:31.854Z,88.65
2022-12-25T01:03:42.343Z,88.71
2022-12-25T01:03:51.808Z,88.69
2022-12-25T01:04:01.824Z,88.62
2022-12-25T01:04:12.342Z,88.60
2022-12-25T01:04:22.257Z,88.59
2022-12-25T01:04:32.310Z,88.57
2022-12-25T01:04:41.861Z,88.51
2022-12-25T01:04:52.361Z,88.44
2022-12-25T01:05:02.288Z,88.46
2022-12-25T01:05:12.371Z,88.41
2022-12-25T01:05:22.358Z,88.35
2022-12-25T01:05:31.836Z,88.37
2022-12-25T01:05:41.760Z,88.35
2022-12-25T01:05:52.504Z,88.31
2022-12-25T01:06:01.795Z,88.37
2022-12-25T01:06:11.756Z,88.30
2022-12-25T01:06:22.393Z,88.33
2022-12-25T01:06:32.395Z,88.37
2022-12-25T01:06:41.744Z,88.37
2022-12-25T01:06:51.777Z,88.28
2022-12-25T01:07:01.835Z,88.34
2022-12-25T01:07:11.743Z,88.32
2022-12-25T01:07:21.751Z,88.31
2022-12-25T01:07:32.159Z,88.33
2022-12-25T01:07:41.736Z,88.32
2022-12-25T01:07:51.797Z,88.31
2022-12-25T01:08:02.025Z,88.29
2022-12-25T01:08:12.443Z,88.35
2022-12-25T01:08:22.476Z,88.41
2022-12-25T01:08:32.544Z,88.44
2022-12-25T01:08:41.723Z,88.43
2022-12-25T01:08:51.746Z,88.36
2022-12-25T01:09:02.527Z,88.39
2022-12-25T01:09:12.551Z,88.42
2022-12-25T01:09:21.713Z,88.45
2022-12-25T01:09:32.522Z,88.44
2022-12-25T01:09:42.348Z,88.53
2022-12-25T01:09:51.796Z,88.54
2022-12-25T01:10:01.856Z,88.50
2022-12-25T01:10:11.718Z,88.45
2022-12-25T01:10:21.712Z,88.53
2022-12-25T01:10:32.625Z,88.53
2022-12-25T01:10:42.554Z,88.57
2022-12-25T01:10:51.705Z,88.53
2022-12-25T01:11:02.635Z,88.47
2022-12-25T01:11:11.711Z,88.50
2022-12-25T01:11:21.754Z,88.42
2022-12-25T01:11:32.634Z,88.39
2022-12-25T01:11:41.713Z,88.41
2022-12-25T01:11:53.206Z,88.35
2022-12-25T01:12:01.743Z,88.41
2022-12-25T01:12:11.716Z,88.34
2022-12-25T01:12:21.716Z,88.36
2022-12-25T01:12:31.703Z,88.36
2022-12-25T01:12:43.192Z,88.36
2022-12-25T01:12:52.670Z,88.44
2022-12-25T01:13:02.745Z,88.41
2022-12-25T01:13:11.693Z,88.39
2022-12-25T01:13:21.739Z,88.36
2022-12-25T01:13:31.714Z,88.35
2022-12-25T01:13:41.715Z,88.39
2022-12-25T01:13:51.773Z,88.36
2022-12-25T01:14:03.209Z,88.35
2022-12-25T01:14:11.703Z,88.33
2022-12-25T01:14:21.718Z,88.22
2022-12-25T01:14:31.785Z,88.26
2022-12-25T01:14:43.144Z,88.17
2022-12-25T01:14:52.055Z,88.33
2022-12-25T01:15:01.735Z,88.26
2022-12-25T01:15:11.694Z,88.19
2022-12-25T01:15:21.755Z,88.22
2022-12-25T01:15:31.774Z,88.29
2022-12-25T01:15:41.680Z,88.36
2022-12-25T01:15:51.869Z,88.33
2022-12-25T01:16:03.214Z,88.35
2022-12-25T01:16:12.678Z,88.39
2022-12-25T01:16:23.191Z,88.34
2022-12-25T01:16:31.758Z,88.36
2022-12-25T01:16:42.550Z,88.26
2022-12-25T01:16:51.785Z,88.33
2022-12-25T01:17:01.700Z,88.23
2022-12-25T01:17:11.685Z,88.27
2022-12-25T01:17:21.686Z,88.28
2022-12-25T01:17:31.869Z,88.21
2022-12-25T01:17:43.091Z,88.27
2022-12-25T01:17:52.648Z,88.26
2022-12-25T01:18:07.436Z,88.22
2022-12-25T01:18:13.102Z,88.48
2022-12-25T01:18:21.802Z,88.44
2022-12-25T01:18:31.658Z,88.29
2022-12-25T01:18:41.688Z,88.30
2022-12-25T01:18:51.681Z,88.36
2022-12-25T01:19:01.694Z,88.35
2022-12-25T01:19:12.030Z,88.38
2022-12-25T01:19:21.668Z,88.39
2022-12-25T01:19:31.644Z,88.36
2022-12-25T01:19:41.647Z,88.46
2022-12-25T01:19:51.685Z,88.41
2022-12-25T01:20:01.694Z,88.41
2022-12-25T01:20:11.661Z,88.46
2022-12-25T01:20:21.851Z,88.47
2022-12-25T01:20:31.652Z,88.49
2022-12-25T01:20:42.713Z,88.49
2022-12-25T01:20:53.086Z,88.53
2022-12-25T01:21:01.676Z,88.59
2022-12-25T01:21:11.665Z,88.51
2022-12-25T01:21:21.691Z,88.56
2022-12-25T01:21:32.575Z,88.57
2022-12-25T01:21:41.646Z,88.55
2022-12-25T01:21:51.696Z,88.47
2022-12-25T01:22:02.489Z,88.51
2022-12-25T01:22:11.659Z,88.55
2022-12-25T01:22:23.087Z,88.51
2022-12-25T01:22:32.199Z,88.57
2022-12-25T01:22:41.695Z,88.48
2022-12-25T01:22:51.634Z,88.54
2022-12-25T01:23:01.653Z,88.53
2022-12-25T01:23:11.619Z,88.64
2022-12-25T01:23:23.110Z,88.59
2022-12-25T01:23:31.638Z,88.68
2022-12-25T01:23:41.636Z,88.59
2022-12-25T01:23:53.100Z,88.62
2022-12-25T01:24:02.594Z,88.67
2022-12-25T01:24:11.625Z,88.61
2022-12-25T01:24:22.822Z,88.64
2022-12-25T01:24:31.910Z,88.69
2022-12-25T01:24:41.614Z,88.59
2022-12-25T01:24:51.618Z,88.64
2022-12-25T01:25:01.694Z,88.62
2022-12-25T01:25:11.662Z,88.61
2022-12-25T01:25:21.609Z,88.62
2022-12-25T01:25:31.929Z,88.64
2022-12-25T01:25:41.781Z,88.65
2022-12-25T01:25:51.613Z,88.68
2022-12-25T01:26:01.909Z,88.69
2022-12-25T01:26:11.583Z,88.69
2022-12-25T01:26:23.089Z,88.69
2022-12-25T01:26:33.071Z,88.69
2022-12-25T01:26:43.279Z,88.66
2022-12-25T01:26:53.089Z,88.70
2022-12-25T01:27:02.551Z,88.63
2022-12-25T01:27:13.039Z,88.64
2022-12-25T01:27:21.617Z,88.60
2022-12-25T01:27:33.089Z,88.61
2022-12-25T01:27:41.676Z,88.71
2022-12-25T01:27:51.600Z,88.61
2022-12-25T01:28:01.666Z,88.69
2022-12-25T01:28:11.639Z,88.66
2022-12-25T01:28:21.678Z,88.69
2022-12-25T01:28:32.160Z,88.62
2022-12-25T01:28:42.542Z,88.66
2022-12-25T01:28:51.589Z,88.65
2022-12-25T01:29:01.631Z,88.59
2022-12-25T01:29:11.636Z,88.59
2022-12-25T01:29:21.605Z,88.57
2022-12-25T01:29:31.622Z,88.54
2022-12-25T01:29:41.580Z,88.54
2022-12-25T01:29:51.645Z,88.59
2022-12-25T01:30:01.592Z,88.51
2022-12-25T01:30:11.629Z,88.55
2022-12-25T01:30:22.062Z,88.48
2022-12-25T01:30:31.569Z,88.60
2022-12-25T01:30:41.596Z,88.51
2022-12-25T01:30:51.587Z,88.51
2022-12-25T01:31:01.669Z,88.41
2022-12-25T01:31:11.640Z,88.47
2022-12-25T01:31:21.598Z,88.44
2022-12-25T01:31:31.660Z,88.38
2022-12-25T01:31:41.662Z,88.37
2022-12-25T01:31:51.672Z,88.37
2022-12-25T01:32:01.642Z,88.36
2022-12-25T01:32:11.615Z,88.42
2022-12-25T01:32:21.610Z,88.40
2022-12-25T01:32:31.648Z,88.37
2022-12-25T01:32:41.567Z,88.39
2022-12-25T01:32:53.023Z,88.39
2022-12-25T01:33:01.574Z,88.43
2022-12-25T01:33:12.998Z,88.31
2022-12-25T01:33:21.659Z,88.35
2022-12-25T01:33:31.542Z,88.25
2022-12-25T01:33:41.600Z,88.23
2022-12-25T01:33:51.610Z,88.20
2022-12-25T01:34:01.591Z,88.24
2022-12-25T01:34:11.556Z,88.24
2022-12-25T01:34:21.749Z,88.21
2022-12-25T01:34:32.975Z,88.29
2022-12-25T01:34:41.685Z,88.34
2022-12-25T01:34:55.890Z,88.31
2022-12-25T01:35:01.656Z,88.58
2022-12-25T01:35:11.769Z,88.44
2022-12-25T01:35:21.521Z,88.43
2022-12-25T01:35:31.543Z,88.41
2022-12-25T01:35:41.540Z,88.43
2022-12-25T01:35:51.520Z,88.41
2022-12-25T01:36:02.999Z,88.45
2022-12-25T01:36:12.976Z,88.49
2022-12-25T01:36:21.521Z,88.45
2022-12-25T01:36:31.535Z,88.42
2022-12-25T01:36:42.554Z,88.40
2022-12-25T01:36:51.522Z,88.48
2022-12-25T01:37:01.542Z,88.44
2022-12-25T01:37:11.537Z,88.44
2022-12-25T01:37:23.020Z,88.47
2022-12-25T01:37:32.513Z,88.55
2022-12-25T01:37:41.513Z,88.53
2022-12-25T01:37:51.880Z,88.51
2022-12-25T01:38:01.917Z,88.57
2022-12-25T01:38:11.951Z,88.55
2022-12-25T01:38:22.462Z,88.48
2022-12-25T01:38:31.935Z,88.57
2022-12-25T01:38:41.957Z,88.52
2022-12-25T01:38:51.553Z,88.61
2022-12-25T01:39:01.574Z,88.60
2022-12-25T01:39:12.195Z,88.73
2022-12-25T01:39:21.784Z,88.81
2022-12-25T01:39:32.023Z,88.81
2022-12-25T01:39:42.494Z,88.90
2022-12-25T01:39:51.992Z,89.01
2022-12-25T01:40:01.638Z,88.98
2022-12-25T01:40:12.528Z,89.03
2022-12-25T01:40:21.488Z,89.15
2022-12-25T01:40:33.029Z,89.15
2022-12-25T01:40:41.941Z,89.31
2022-12-25T01:40:52.097Z,89.22
2022-12-25T01:41:02.036Z,89.36
2022-12-25T01:41:11.482Z,89.30
2022-12-25T01:41:21.663Z,89.32
2022-12-25T01:41:32.032Z,89.42
2022-12-25T01:41:41.522Z,89.42
2022-12-25T01:41:51.714Z,89.42
2022-12-25T01:42:02.037Z,89.50
2022-12-25T01:42:11.499Z,89.48
2022-12-25T01:42:21.537Z,89.48
2022-12-25T01:42:32.023Z,89.50
2022-12-25T01:42:43.004Z,89.55
2022-12-25T01:42:52.438Z,89.63
2022-12-25T01:43:02.135Z,89.60
2022-12-25T01:43:18.522Z,89.60
2022-12-25T01:43:23.986Z,89.92
2022-12-25T01:43:32.533Z,89.79
2022-12-25T01:43:43.953Z,89.63
2022-12-25T01:43:53.143Z,89.68
2022-12-25T01:44:02.551Z,89.57
2022-12-25T01:44:12.557Z,89.57
2022-12-25T01:44:23.231Z,89.51
2022-12-25T01:44:33.163Z,89.60
2022-12-25T01:44:43.195Z,89.58
2022-12-25T01:44:53.134Z,89.55
2022-12-25T01:45:02.488Z,89.62
2022-12-25T01:45:12.514Z,89.54
2022-12-25T01:45:22.560Z,89.55
2022-12-25T01:45:33.418Z,89.53
2022-12-25T01:45:43.358Z,89.56
2022-12-25T01:45:52.657Z,89.57
2022-12-25T01:46:02.635Z,89.50
2022-12-25T01:46:13.407Z,89.53
2022-12-25T01:46:22.546Z,89.56
2022-12-25T01:46:33.589Z,89.52
2022-12-25T01:46:43.323Z,89.62
2022-12-25T01:46:52.507Z,89.47
2022-12-25T01:47:02.557Z,89.48
2022-12-25T01:47:12.875Z,89.49
2022-12-25T01:47:22.493Z,89.54
2022-12-25T01:47:32.495Z,89.52
2022-12-25T01:47:43.363Z,89.57
2022-12-25T01:47:52.467Z,89.67
2022-12-25T01:48:02.573Z,89.65
2022-12-25T01:48:13.310Z,89.66
2022-12-25T01:48:23.933Z,89.79
2022-12-25T01:48:32.528Z,89.82
2022-12-25T01:48:42.495Z,89.75
2022-12-25T01:48:52.505Z,89.77
2022-12-25T01:49:02.486Z,89.86
2022-12-25T01:49:12.475Z,89.79
2022-12-25T01:49:22.487Z,89.89
2022-12-25T01:49:33.505Z,89.91
2022-12-25T01:49:42.452Z,89.92
2022-12-25T01:49:53.917Z,89.87
2022-12-25T01:50:02.506Z,89.96
2022-12-25T01:50:12.532Z,89.89
2022-12-25T01:50:22.614Z,89.88
2022-12-25T01:50:33.887Z,89.90
2022-12-25T01:50:42.463Z,89.93
2022-12-25T01:50:52.519Z,89.85
2022-12-25T01:51:02.464Z,89.81
2022-12-25T01:51:12.603Z,89.83
2022-12-25T01:51:22.479Z,89.86
2022-12-25T01:51:33.907Z,89.85
2022-12-25T01:51:42.451Z,89.88
2022-12-25T01:51:53.895Z,89.75
2022-12-25T01:52:02.474Z,89.86
2022-12-25T01:52:12.469Z,89.69
2022-12-25T01:52:24.681Z,89.68
2022-12-25T01:52:32.452Z,89.75
2022-12-25T01:52:42.455Z,89.61
2022-12-25T01:52:52.464Z,89.62
2022-12-25T01:53:02.481Z,89.62
2022-12-25T01:53:12.450Z,89.58
2022-12-25T01:53:22.445Z,89.57
2022-12-25T01:53:32.452Z,89.58
2022-12-25T01:53:42.538Z,89.60
2022-12-25T01:53:52.716Z,89.50
2022-12-25T01:54:02.717Z,89.49
2022-12-25T01:54:12.446Z,89.46
2022-12-25T01:54:22.497Z,89.51
2022-12-25T01:54:32.442Z,89.45
2022-12-25T01:54:42.695Z,89.40
2022-12-25T01:54:52.494Z,89.46
2022-12-25T01:55:02.437Z,89.40
2022-12-25T01:55:12.452Z,89.41
2022-12-25T01:55:22.486Z,89.37
2022-12-25T01:55:32.507Z,89.37
2022-12-25T01:55:42.455Z,89.33
2022-12-25T01:55:52.494Z,89.40
2022-12-25T01:56:02.540Z,89.41
2022-12-25T01:56:12.477Z,89.42
2022-12-25T01:56:22.504Z,89.48
2022-12-25T01:56:32.616Z,89.44
2022-12-25T01:56:42.475Z,89.52
2022-12-25T01:56:53.850Z,89.49
2022-12-25T01:57:02.535Z,89.62
2022-12-25T01:57:12.459Z,89.62
2022-12-25T01:57:22.429Z,89.64
2022-12-25T01:57:32.436Z,89.71
2022-12-25T01:57:42.468Z,89.69
2022-12-25T01:57:53.877Z,89.74
2022-12-25T01:58:02.456Z,89.88
2022-12-25T01:58:12.450Z,89.83
2022-12-25T01:58:23.902Z,89.84
2022-12-25T01:58:33.374Z,89.97
2022-12-25T01:58:43.430Z,89.94
2022-12-25T01:58:52.440Z,89.92
2022-12-25T01:59:02.504Z,89.87
2022-12-25T01:59:13.273Z,89.95
2022-12-25T01:59:22.454Z,90.00
2022-12-25T01:59:33.880Z,89.94
2022-12-25T01:59:42.459Z,89.96
2022-12-25T01:59:52.395Z,89.92
2022-12-25T02:00:02.446Z,89.97
2022-12-25T02:00:12.494Z,89.94
2022-12-25T02:00:22.395Z,89.95
2022-12-25T02:00:32.427Z,90.01
2022-12-25T02:00:42.458Z,89.96
2022-12-25T02:00:52.545Z,89.88
2022-12-25T02:01:02.472Z,89.98
2022-12-25T02:01:12.431Z,89.91
2022-12-25T02:01:22.595Z,89.90
2022-12-25T02:01:32.476Z,89.87
2022-12-25T02:01:44.025Z,89.76
2022-12-25T02:01:52.815Z,89.76
2022-12-25T02:02:02.498Z,89.61
2022-12-25T02:02:12.703Z,89.58
2022-12-25T02:02:22.829Z,89.55
2022-12-25T02:02:32.628Z,89.50
2022-12-25T02:02:43.933Z,89.49
2022-12-25T02:02:52.532Z,89.47
2022-12-25T02:03:02.466Z,89.37
2022-12-25T02:03:12.497Z,89.41
2022-12-25T02:03:22.770Z,89.38
2022-12-25T02:03:33.840Z,89.37
2022-12-25T02:03:42.608Z,89.36
2022-12-25T02:03:52.386Z,89.32
2022-12-25T02:04:02.397Z,89.26
2022-12-25T02:04:12.617Z,89.28
2022-12-25T02:04:23.329Z,89.25
2022-12-25T02:04:32.429Z,89.28
2022-12-25T02:04:42.418Z,89.26
2022-12-25T02:04:52.393Z,89.35
2022-12-25T02:05:02.495Z,89.39
2022-12-25T02:05:12.436Z,89.39
2022-12-25T02:05:22.419Z,89.41
2022-12-25T02:05:32.413Z,89.42
2022-12-25T02:05:43.828Z,89.39
2022-12-25T02:05:53.353Z,89.52
2022-12-25T02:06:03.831Z,89.48
2022-12-25T02:06:12.398Z,89.54
2022-12-25T02:06:22.391Z,89.48
2022-12-25T02:06:33.848Z,89.54
2022-12-25T02:06:42.380Z,89.59
2022-12-25T02:06:52.388Z,89.48
2022-12-25T02:07:02.396Z,89.54
2022-12-25T02:07:12.378Z,89.57
2022-12-25T02:07:22.411Z,89.53
2022-12-25T02:07:32.484Z,89.52
2022-12-25T02:07:42.392Z,89.58
2022-12-25T02:07:53.809Z,89.48
2022-12-25T02:08:02.386Z,89.55
2022-12-25T02:08:13.042Z,89.44
2022-12-25T02:08:22.501Z,89.51
2022-12-25T02:08:33.150Z,89.42
2022-12-25T02:08:43.845Z,89.43